Time;durP1;ratioP1;P1;durP2;ratioP2;P2;SDS_P1;SDS_P2;PMS_P1;PMS_P2;Temp;Humidity;BMP_temperature;BMP_pressure;BME280_temperature;BME280_humidity;BME280_pressure;Samples;Min_cycle;Max_cycle;Signal;HPM_P1;HPM_P2
2023/10/04 00:00:45;;;;;;;14.60;7.30;;;;;;;14.16;90.40;64446.78;5071783;28;20205;-55
2023/10/04 00:03:11;;;;;;;14.27;7.35;;;;;;;14.14;89.52;64444.59;5072734;28;20223;-52
2023/10/04 00:05:37;;;;;;;11.20;6.68;;;;;;;13.99;89.88;64428.69;5072901;28;20295;-52
2023/10/04 00:08:03;;;;;;;11.50;6.95;;;;;;;14.01;90.88;64430.88;5070855;28;20769;-52
2023/10/04 00:10:28;;;;;;;9.32;6.60;;;;;;;14.02;91.29;64431.41;5072414;28;20300;-52
2023/10/04 00:12:55;;;;;;;14.77;6.90;;;;;;;14.00;91.94;64429.22;5072372;28;20215;-52
2023/10/04 00:15:22;;;;;;;9.38;6.30;;;;;;;13.99;91.65;64428.13;5073222;28;20246;-52
2023/10/04 00:17:48;;;;;;;12.75;7.53;;;;;;;13.90;92.75;64418.22;5072547;28;20295;-53
2023/10/04 00:20:19;;;;;;;10.07;6.47;;;;;;;14.06;91.77;64435.78;5072374;28;20292;-52
2023/10/04 00:22:49;;;;;;;10.93;6.25;;;;;;;13.94;91.80;64422.63;5070338;28;20761;-58
2023/10/04 00:25:21;;;;;;;13.40;7.30;;;;;;;13.90;92.60;64418.22;5072409;28;20212;-55
2023/10/04 00:27:52;;;;;;;10.43;6.30;;;;;;;13.91;92.26;64417.34;5072392;28;20221;-50
2023/10/04 00:30:18;;;;;;;13.88;6.57;;;;;;;13.79;93.11;64406.16;5071929;28;20205;-51
2023/10/04 00:32:46;;;;;;;12.70;6.68;;;;;;;13.80;93.99;64407.78;5071374;28;20285;-55
2023/10/04 00:35:17;;;;;;;13.48;6.72;;;;;;;13.79;93.14;64404.19;5072028;28;20240;-52
2023/10/04 00:37:51;;;;;;;12.35;6.70;;;;;;;13.88;92.80;64414.06;5071953;28;20208;-52
2023/10/04 00:40:23;;;;;;;11.00;6.10;;;;;;;13.79;93.55;64403.63;5072380;28;20593;-54
2023/10/04 00:42:51;;;;;;;9.63;6.80;;;;;;;13.89;93.29;64417.13;5073064;28;20212;-54
2023/10/04 00:45:17;;;;;;;10.77;6.65;;;;;;;13.92;93.36;64418.44;5072484;28;20192;-51
2023/10/04 00:47:47;;;;;;;9.30;6.50;;;;;;;13.99;92.68;64425.59;5070991;28;20239;-55
2023/10/04 00:50:20;;;;;;;9.10;6.25;;;;;;;14.03;92.21;64429.97;5072009;28;20254;-55
2023/10/04 00:53:26;;;;;;;11.55;7.15;;;;;;;14.00;91.78;64429.75;5070616;28;20640;-55
2023/10/04 00:55:56;;;;;;;10.05;6.40;;;;;;;14.11;91.58;64438.75;5069459;28;20231;-50
2023/10/04 00:58:22;;;;;;;10.02;6.70;;;;;;;14.00;92.77;64426.69;5070513;28;20269;-54
2023/10/04 01:00:48;;;;;;;11.90;6.65;;;;;;;14.05;91.80;64432.72;5071253;28;20226;-54
2023/10/04 01:03:23;;;;;;;10.70;7.13;;;;;;;14.00;92.23;64429.75;5070283;28;20729;-54
2023/10/04 01:05:51;;;;;;;11.55;6.78;;;;;;;14.08;91.88;64438.00;5070779;28;20204;-54
2023/10/04 01:08:21;;;;;;;14.00;6.78;;;;;;;14.00;91.81;64429.75;5071463;28;20635;-54
2023/10/04 01:10:49;;;;;;;9.90;6.82;;;;;;;13.90;92.87;64418.22;5069741;28;20689;-52
2023/10/04 01:13:20;;;;;;;10.57;6.93;;;;;;;13.91;92.46;64419.34;5071453;28;20243;-55
2023/10/04 01:15:49;;;;;;;13.13;6.82;;;;;;;13.97;92.05;64423.38;5070542;28;20203;-54
2023/10/04 01:18:16;;;;;;;10.15;7.13;;;;;;;13.86;92.90;64413.84;5070408;28;20255;-52
2023/10/04 01:20:43;;;;;;;11.63;6.88;;;;;;;13.83;93.95;64408.00;5070143;28;20208;-52
2023/10/04 01:23:12;;;;;;;12.75;7.25;;;;;;;13.76;93.64;64402.84;5071860;28;20213;-54
2023/10/04 01:25:41;;;;;;;11.70;7.05;;;;;;;13.78;93.44;64405.59;5071696;28;20262;-52
2023/10/04 01:28:26;;;;;;;10.73;6.88;;;;;;;13.88;92.55;64413.50;5070931;28;20209;-52
2023/10/04 01:30:53;;;;;;;12.52;6.82;;;;;;;13.79;93.19;64403.63;5071200;28;20685;-52
2023/10/04 01:33:19;;;;;;;11.35;6.88;;;;;;;13.78;94.03;64405.59;5070776;28;20219;-58
2023/10/04 01:35:49;;;;;;;11.75;7.45;;;;;;;13.80;93.58;64407.78;5070945;28;20232;-51
2023/10/04 01:38:16;;;;;;;10.60;6.70;;;;;;;13.80;93.81;64407.25;5071274;28;20212;-55
2023/10/04 01:40:47;;;;;;;12.73;7.22;;;;;;;13.86;93.38;64414.38;5071737;28;20270;-53
2023/10/04 01:43:16;;;;;;;11.07;7.10;;;;;;;13.87;92.77;64414.94;5070285;28;20228;-52
2023/10/04 01:45:49;;;;;;;15.38;7.75;;;;;;;13.85;92.61;64412.75;5071415;28;20204;-52
2023/10/04 01:48:20;;;;;;;10.50;6.43;;;;;;;13.74;93.45;64398.13;5069848;28;20767;-52
2023/10/04 01:50:52;;;;;;;13.25;7.03;;;;;;;13.71;92.83;64397.38;5071535;28;20697;-55
2023/10/04 01:53:21;;;;;;;12.15;6.75;;;;;;;13.61;94.25;64386.41;5071519;28;20212;-52
2023/10/04 01:55:46;;;;;;;14.73;7.20;;;;;;;13.54;95.64;64378.69;5070497;28;20260;-52
2023/10/04 01:58:13;;;;;;;11.60;6.70;;;;;;;13.50;96.21;64374.88;5072661;28;20201;-53
2023/10/04 02:00:39;;;;;;;11.25;7.03;;;;;;;13.43;96.82;64367.72;5069652;28;20224;-51
2023/10/04 02:03:07;;;;;;;9.65;6.80;;;;;;;13.72;95.33;64395.94;5071183;28;20252;-52
2023/10/04 02:05:37;;;;;;;14.23;7.35;;;;;;;13.67;94.90;64392.97;5070638;28;20212;-53
2023/10/04 02:08:05;;;;;;;10.18;7.07;;;;;;;13.43;96.63;64364.66;5070858;28;20232;-52
2023/10/04 02:10:31;;;;;;;11.20;7.23;;;;;;;13.34;96.64;64354.75;5071043;28;20240;-51
2023/10/04 02:12:59;;;;;;;18.83;8.48;;;;;;;13.32;96.11;64355.09;5070252;28;20205;-52
2023/10/04 02:15:26;;;;;;;12.43;7.45;;;;;;;13.20;97.15;64341.94;5068751;28;20185;-52
2023/10/04 02:17:53;;;;;;;13.93;7.57;;;;;;;13.07;99.27;64325.69;5072026;28;20205;-53
2023/10/04 02:20:23;;;;;;;10.95;7.00;;;;;;;13.13;98.96;64334.25;5070394;28;20221;-54
2023/10/04 02:22:49;;;;;;;13.50;7.70;;;;;;;13.27;98.54;64352.69;5074248;28;20228;-54
2023/10/04 02:25:15;;;;;;;14.57;7.75;;;;;;;13.36;98.03;64357.53;5074826;28;20240;-55
2023/10/04 02:27:42;;;;;;;13.48;7.88;;;;;;;13.32;97.18;64358.19;5072741;28;20274;-52
2023/10/04 02:30:15;;;;;;;13.50;7.85;;;;;;;13.26;98.59;64346.53;5073981;28;20213;-52
2023/10/04 02:32:44;;;;;;;12.82;7.82;;;;;;;13.21;98.67;64341.03;5073860;28;20297;-55
2023/10/04 02:38:24;;;;;;;13.00;7.63;;;;;;;12.98;99.96;64317.78;5061009;28;20220;-54
2023/10/04 02:40:50;;;;;;;12.20;7.75;;;;;;;13.10;98.15;64330.97;5073765;28;20639;-55
2023/10/04 02:43:17;;;;;;;14.43;7.65;;;;;;;13.09;97.77;64332.41;5074137;28;20220;-54
2023/10/04 02:45:43;;;;;;;12.43;6.43;;;;;;;13.14;97.12;64333.38;5074049;28;20212;-52
2023/10/04 02:48:10;;;;;;;11.27;6.93;;;;;;;13.21;96.94;64343.03;5073720;28;20302;-52
2023/10/04 02:50:46;;;;;;;12.93;7.37;;;;;;;13.23;97.92;64345.25;5073890;28;20205;-53
2023/10/04 02:53:14;;;;;;;13.17;7.20;;;;;;;13.10;98.96;64328.97;5073699;28;20206;-53
2023/10/04 02:55:40;;;;;;;14.68;7.35;;;;;;;12.99;99.19;64318.88;5073718;28;20239;-56
2023/10/04 02:58:06;;;;;;;13.15;7.18;;;;;;;13.00;97.76;64320.53;5073975;28;20205;-65
2023/10/04 03:00:33;;;;;;;14.48;6.60;;;;;;;12.91;98.32;64307.56;5073985;28;20199;-52
2023/10/04 03:02:59;;;;;;;10.60;7.03;;;;;;;12.92;98.66;64308.66;5073848;28;20705;-55
2023/10/04 03:05:28;;;;;;;12.43;7.57;;;;;;;12.91;99.17;64310.63;5073615;28;20205;-52
2023/10/04 03:07:55;;;;;;;13.75;7.47;;;;;;;12.98;99.30;64315.78;5072285;28;20216;-54
2023/10/04 03:10:24;;;;;;;12.80;7.00;;;;;;;13.13;98.12;64331.72;5073569;28;20679;-54
2023/10/04 03:12:54;;;;;;;13.15;7.80;;;;;;;13.03;98.82;64321.28;5073332;28;20208;-51
2023/10/04 03:15:23;;;;;;;13.07;7.27;;;;;;;12.98;98.42;64320.84;5073393;28;20224;-51
2023/10/04 03:17:53;;;;;;;11.15;7.60;;;;;;;12.85;99.74;64304.06;5075284;28;20652;-52
2023/10/04 03:20:23;;;;;;;10.27;6.93;;;;;;;13.00;96.69;64317.44;5075192;28;20287;-53
2023/10/04 03:22:50;;;;;;;12.43;7.33;;;;;;;13.16;96.99;64338.09;5073698;28;20204;-57
2023/10/04 03:25:17;;;;;;;12.70;7.05;;;;;;;13.05;96.78;64326.00;5074493;28;20197;-52
2023/10/04 03:27:46;;;;;;;13.25;7.78;;;;;;;12.98;95.79;64318.31;5073317;28;20216;-51
2023/10/04 03:30:14;;;;;;;12.00;6.90;;;;;;;12.86;97.39;64299.53;5073360;28;20236;-55
2023/10/04 03:32:53;;;;;;;16.27;6.90;;;;;;;12.75;97.23;64293.09;5071884;28;20209;-54
2023/10/04 03:35:26;;;;;;;12.02;6.50;;;;;;;12.56;98.70;64269.72;5073422;28;20621;-55
2023/10/04 03:37:58;;;;;;;12.73;6.30;;;;;;;12.50;97.92;64266.19;5072685;28;20303;-54
2023/10/04 03:40:38;;;;;;;11.53;6.93;;;;;;;12.50;98.12;64271.25;5072869;28;20292;-55
2023/10/04 03:43:06;;;;;;;10.90;6.88;;;;;;;12.37;98.97;64248.88;5073047;28;20243;-55
2023/10/04 03:45:32;;;;;;;12.07;6.93;;;;;;;12.35;99.31;64249.22;5073209;28;20258;-51
2023/10/04 03:47:58;;;;;;;15.00;7.43;;;;;;;12.35;99.57;64249.22;5072755;28;20253;-52
2023/10/04 03:50:25;;;;;;;9.37;6.33;;;;;;;12.14;100.00;64223.66;5071233;28;20220;-52
2023/10/04 03:52:52;;;;;;;11.70;6.90;;;;;;;12.06;100.00;64217.97;5072677;28;20216;-55
2023/10/04 03:55:18;;;;;;;12.13;7.07;;;;;;;11.90;100.00;64199.88;5072814;28;20338;-53
2023/10/04 03:57:48;;;;;;;15.23;8.83;;;;;;;12.02;100.00;64210.53;5072587;28;20230;-52
2023/10/04 04:00:17;;;;;;;9.90;7.20;;;;;;;11.90;100.00;64202.41;5071303;28;20732;-52
2023/10/04 04:02:44;;;;;;;13.30;7.83;;;;;;;11.76;100.00;64185.63;5071297;28;20216;-56
2023/10/04 04:05:14;;;;;;;13.57;7.90;;;;;;;11.71;100.00;64177.63;5073101;28;20753;-53
2023/10/04 04:07:42;;;;;;;14.07;7.20;;;;;;;11.55;100.00;64162.59;5074759;28;20690;-53
2023/10/04 04:10:15;;;;;;;11.13;7.10;;;;;;;11.54;100.00;64161.50;5073511;28;20238;-52
2023/10/04 04:12:42;;;;;;;11.77;8.20;;;;;;;11.30;100.00;64135.22;5072901;28;20208;-52
2023/10/04 04:15:09;;;;;;;12.03;7.83;;;;;;;11.27;100.00;64131.91;5072331;28;20200;-52
2023/10/04 04:17:41;;;;;;;16.00;7.17;;;;;;;11.20;100.00;64123.72;5074059;28;20358;-55
2023/10/04 04:20:14;;;;;;;12.77;7.07;;;;;;;11.12;100.00;64115.50;5072392;28;20582;-55
2023/10/04 04:22:55;;;;;;;11.87;7.13;;;;;;;11.25;100.00;64129.72;5073442;28;20257;-54
2023/10/04 04:25:28;;;;;;;12.43;6.87;;;;;;;11.25;100.00;64127.19;5073916;28;20258;-54
2023/10/04 04:27:56;;;;;;;14.57;7.50;;;;;;;11.26;100.00;64130.84;5072238;28;20204;-54
2023/10/04 04:30:28;;;;;;;15.07;7.60;;;;;;;11.32;100.00;64137.41;5073721;28;20189;-56
2023/10/04 04:32:57;;;;;;;11.67;7.83;;;;;;;11.30;100.00;64132.69;5073441;28;20212;-52
2023/10/04 04:38:24;;;;;;;18.57;10.33;;;;;;;11.47;100.00;64153.28;5072408;28;20307;-51
2023/10/04 04:40:58;;;;;;;15.83;8.17;;;;;;;11.56;100.00;64161.16;5071436;28;20209;-52
2023/10/04 04:43:36;;;;;;;15.37;7.77;;;;;;;11.60;100.00;64165.00;5071825;28;20709;-52
2023/10/04 04:46:23;;;;;;;14.60;7.40;;;;;;;11.58;100.00;64163.38;5073647;28;20195;-58
2023/10/04 04:48:50;;;;;;;15.57;8.90;;;;;;;11.53;100.00;64159.88;5056578;28;20211;-53
2023/10/04 04:51:18;;;;;;;17.10;9.20;;;;;;;11.49;100.00;64155.47;5070269;28;20212;-51
2023/10/04 04:53:50;;;;;;;13.73;7.83;;;;;;;11.55;100.00;64162.06;5071483;28;20197;-53
2023/10/04 04:56:18;;;;;;;13.50;6.83;;;;;;;11.45;100.00;64151.63;5071561;28;20203;-52
2023/10/04 04:58:48;;;;;;;12.60;7.67;;;;;;;11.42;100.00;64147.81;5071762;28;20732;-55
2023/10/04 05:01:17;;;;;;;16.97;7.17;;;;;;;11.42;100.00;64150.88;5071819;28;20283;-51
2023/10/04 05:03:50;;;;;;;16.10;7.90;;;;;;;11.46;100.00;64152.75;5070078;28;20242;-51
2023/10/04 05:06:22;;;;;;;14.10;7.10;;;;;;;11.38;100.00;64143.97;5070107;28;20236;-51
2023/10/04 05:08:51;;;;;;;12.73;6.83;;;;;;;11.31;100.00;64133.78;5071340;28;20193;-52
2023/10/04 05:11:17;;;;;;;13.33;7.80;;;;;;;11.59;100.00;64167.00;5071422;28;20197;-59
2023/10/04 05:13:43;;;;;;;12.50;6.90;;;;;;;11.63;100.00;64171.38;5071161;28;20201;-54
2023/10/04 05:16:10;;;;;;;11.77;7.30;;;;;;;11.62;100.00;64167.75;5069821;28;20278;-54
2023/10/04 05:18:36;;;;;;;12.83;7.30;;;;;;;11.60;100.00;64165.56;5071153;28;20335;-53
2023/10/04 05:21:01;;;;;;;13.90;7.23;;;;;;;11.60;100.00;64165.00;5069859;28;20237;-56
2023/10/04 05:23:29;;;;;;;11.70;7.47;;;;;;;11.65;100.00;64171.03;5071148;28;20212;-57
2023/10/04 05:25:55;;;;;;;14.53;7.67;;;;;;;11.75;100.00;64184.53;5071391;28;20251;-56
2023/10/04 05:28:24;;;;;;;14.40;7.27;;;;;;;11.67;100.00;64173.25;5070926;28;20262;-55
2023/10/04 05:30:51;;;;;;;13.23;7.27;;;;;;;11.76;100.00;64185.63;5071433;28;20284;-59
2023/10/04 05:36:04;;;;;;;16.00;7.73;;;;;;;11.97;100.00;64208.09;5071478;28;20215;-56
2023/10/04 05:38:29;;;;;;;14.93;7.90;;;;;;;12.12;100.00;64224.00;5070862;28;20682;-56
2023/10/04 05:40:55;;;;;;;12.87;7.50;;;;;;;12.11;100.00;64222.91;5069423;28;20216;-57
2023/10/04 05:43:21;;;;;;;14.20;7.67;;;;;;;12.11;100.00;64223.44;5069200;28;20228;-57
2023/10/04 05:45:47;;;;;;;11.93;7.27;;;;;;;12.25;100.00;64238.81;5069297;28;20212;-57
2023/10/04 05:48:14;;;;;;;13.73;7.60;;;;;;;12.22;100.00;64234.97;5069790;28;20240;-57
2023/10/04 05:50:40;;;;;;;15.83;7.73;;;;;;;12.37;100.00;64248.88;5069585;28;20232;-57
2023/10/04 05:53:06;;;;;;;12.43;7.47;;;;;;;12.51;100.00;64269.28;5067168;28;20208;-53
2023/10/04 05:55:37;;;;;;;21.80;8.60;;;;;;;12.58;100.00;64274.44;5066829;28;20671;-56
2023/10/04 05:58:07;;;;;;;11.60;7.40;;;;;;;12.51;100.00;64267.31;5067165;28;20307;-54
2023/10/04 06:00:37;;;;;;;13.57;7.50;;;;;;;12.48;100.00;64263.47;5069191;28;20212;-54
2023/10/04 06:03:15;;;;;;;12.17;7.13;;;;;;;12.75;100.00;64290.56;5070727;28;20299;-54
2023/10/04 06:05:42;;;;;;;13.30;7.83;;;;;;;12.82;100.00;64300.22;5069157;28;20265;-54
2023/10/04 06:08:20;;;;;;;14.97;8.47;;;;;;;12.77;100.00;64295.28;5070512;28;20282;-54
2023/10/04 06:10:48;;;;;;;15.17;7.30;;;;;;;12.91;100.00;64310.63;5070571;28;20216;-55
2023/10/04 06:13:17;;;;;;;15.32;8.27;;;;;;;12.82;100.00;64297.69;5070323;28;20292;-56
2023/10/04 06:15:44;;;;;;;12.50;7.80;;;;;;;12.99;100.00;64316.34;5070755;28;20200;-54
2023/10/04 06:18:13;;;;;;;14.50;8.05;;;;;;;12.97;100.00;64317.22;5070307;28;20247;-54
2023/10/04 06:20:40;;;;;;;14.10;7.93;;;;;;;13.11;100.00;64330.06;5070500;28;20181;-53
2023/10/04 06:23:17;;;;;;;11.98;8.10;;;;;;;13.07;100.00;64325.16;5070426;28;20655;-53
2023/10/04 06:25:48;;;;;;;16.08;8.75;;;;;;;13.06;100.00;64326.56;5070368;28;20588;-54
2023/10/04 06:28:15;;;;;;;17.38;8.82;;;;;;;13.24;100.00;64346.88;5070139;28;20208;-54
2023/10/04 06:30:42;;;;;;;16.00;8.82;;;;;;;13.32;100.00;64355.66;5068960;28;20243;-54
2023/10/04 06:33:10;;;;;;;16.13;9.15;;;;;;;13.34;100.00;64357.31;5070039;28;20209;-54
2023/10/04 06:35:43;;;;;;;17.05;8.60;;;;;;;13.60;99.43;64385.84;5070325;28;20200;-56
2023/10/04 06:38:10;;;;;;;14.45;8.15;;;;;;;13.54;100.00;64378.69;5069254;28;20273;-54
2023/10/04 06:40:42;;;;;;;14.23;8.07;;;;;;;13.63;98.96;64389.16;5070185;28;20284;-54
2023/10/04 06:43:09;;;;;;;10.55;7.22;;;;;;;13.57;100.00;64377.50;5069846;28;20224;-55
2023/10/04 06:45:36;;;;;;;12.38;8.00;;;;;;;13.69;100.00;64395.19;5070139;28;20233;-55
2023/10/04 06:48:06;;;;;;;13.77;7.93;;;;;;;13.65;100.00;64388.25;5069942;28;20666;-53
2023/10/04 06:50:35;;;;;;;16.43;9.20;;;;;;;13.57;100.00;64380.03;5070306;28;20250;-53
2023/10/04 06:53:02;;;;;;;18.38;8.02;;;;;;;13.76;100.00;64398.34;5069987;28;20209;-54
2023/10/04 06:55:32;;;;;;;19.23;9.15;;;;;;;13.94;99.05;64423.16;5068808;28;20205;-54
2023/10/04 06:57:58;;;;;;;16.00;9.00;;;;;;;14.05;100.00;64437.25;5069969;28;20212;-57
2023/10/04 07:00:26;;;;;;;15.50;7.88;;;;;;;13.96;97.53;64419.75;5068809;28;20209;-57
2023/10/04 07:02:58;;;;;;;19.02;9.82;;;;;;;14.02;97.89;64428.88;5075919;22;20225;-54
2023/10/04 07:05:26;;;;;;;14.05;9.00;;;;;;;14.23;99.53;64451.94;5070080;28;20205;-55
2023/10/04 07:07:53;;;;;;;17.77;9.35;;;;;;;14.41;97.23;64473.72;5070164;28;20725;-55
2023/10/04 07:10:23;;;;;;;18.45;10.07;;;;;;;14.25;95.83;64454.69;5073430;28;20200;-56
2023/10/04 07:12:54;;;;;;;15.02;10.00;;;;;;;14.05;94.82;64432.72;5073610;28;20224;-54
2023/10/04 07:15:21;;;;;;;18.67;10.68;;;;;;;14.23;96.17;64449.41;5072135;28;20205;-53
2023/10/04 07:17:47;;;;;;;23.80;10.35;;;;;;;14.11;94.10;64438.75;5073373;28;20205;-57
2023/10/04 07:20:15;;;;;;;17.25;10.85;;;;;;;14.18;94.04;64449.53;5073154;28;20201;-55
2023/10/04 07:22:58;;;;;;;19.48;11.40;;;;;;;14.45;93.69;64478.13;5072803;28;20288;-55
2023/10/04 07:25:28;;;;;;;21.90;11.27;;;;;;;14.75;92.96;64509.09;5071835;28;20212;-61
2023/10/04 07:27:56;;;;;;;22.55;10.93;;;;;;;14.73;91.55;64506.34;5072771;28;20201;-60
2023/10/04 07:30:24;;;;;;;21.98;10.98;;;;;;;14.75;93.46;64511.09;5072848;28;20217;-56
2023/10/04 07:32:51;;;;;;;16.55;11.52;;;;;;;14.71;90.01;64506.69;5072682;28;20698;-56
2023/10/04 07:35:20;;;;;;;19.83;10.98;;;;;;;14.83;91.57;64520.44;5072708;28;20709;-57
2023/10/04 07:37:46;;;;;;;17.73;10.63;;;;;;;15.02;90.73;64538.78;5073181;28;20208;-60
2023/10/04 07:40:14;;;;;;;18.02;9.40;;;;;;;15.14;90.68;64553.97;5072989;28;20193;-56
2023/10/04 07:42:42;;;;;;;20.67;10.15;;;;;;;15.18;90.65;64555.84;5072970;28;20698;-56
2023/10/04 07:45:09;;;;;;;18.92;11.98;;;;;;;15.09;90.80;64548.47;5071348;28;20291;-57
2023/10/04 07:47:36;;;;;;;21.17;12.10;;;;;;;15.12;88.68;64546.69;5072568;28;20303;-53
2023/10/04 07:50:09;;;;;;;23.27;11.77;;;;;;;15.23;89.70;64558.25;5072834;28;20200;-55
2023/10/04 07:52:37;;;;;;;15.52;10.52;;;;;;;15.45;87.87;64585.00;5071424;28;20220;-54
2023/10/04 07:55:05;;;;;;;23.17;11.50;;;;;;;15.45;86.91;64585.56;5071381;28;20350;-55
2023/10/04 07:57:41;;;;;;;18.00;11.15;;;;;;;15.91;84.91;64633.06;5073073;28;20205;-54
2023/10/04 08:00:13;;;;;;;16.85;10.77;;;;;;;16.04;83.30;64651.91;5071736;28;20180;-55
2023/10/04 08:02:46;;;;;;;18.90;11.48;;;;;;;16.25;81.99;64673.03;5071129;28;20221;-56
2023/10/04 08:05:19;;;;;;;18.90;11.00;;;;;;;16.29;80.87;64679.41;5072757;28;20677;-54
2023/10/04 08:08:04;;;;;;;19.05;11.15;;;;;;;16.19;83.91;64668.97;5071250;28;20216;-55
2023/10/04 08:10:33;;;;;;;21.15;11.90;;;;;;;16.22;82.31;64669.72;5072583;28;20211;-56
2023/10/04 08:13:01;;;;;;;29.42;12.85;;;;;;;16.23;79.37;64670.25;5071056;28;20305;-54
2023/10/04 08:15:29;;;;;;;23.60;12.77;;;;;;;16.36;79.14;64687.66;5072302;28;20680;-55
2023/10/04 08:17:55;;;;;;;17.45;11.32;;;;;;;16.74;78.58;64727.00;5072099;28;20757;-54
2023/10/04 08:20:22;;;;;;;18.65;11.68;;;;;;;17.11;78.01;64769.19;5072111;28;20196;-55
2023/10/04 08:22:48;;;;;;;19.00;10.95;;;;;;;17.41;75.17;64797.69;5072484;28;20221;-54
2023/10/04 08:25:21;;;;;;;19.23;10.80;;;;;;;17.68;73.86;64829.47;5072092;28;20222;-57
2023/10/04 08:27:48;;;;;;;21.30;12.00;;;;;;;17.74;73.15;64838.63;5063129;22;20612;-55
2023/10/04 08:30:16;;;;;;;26.23;13.10;;;;;;;17.85;73.21;64845.66;5054277;28;20276;-54
2023/10/04 08:32:46;;;;;;;21.80;11.65;;;;;;;17.90;74.43;64853.16;5071662;28;20225;-54
2023/10/04 08:35:27;;;;;;;20.67;12.55;;;;;;;18.15;70.43;64881.28;5071935;28;20212;-56
2023/10/04 08:37:55;;;;;;;16.88;11.27;;;;;;;18.77;69.71;64951.13;5072071;28;20231;-56
2023/10/04 08:40:23;;;;;;;21.65;12.13;;;;;;;19.07;70.08;64979.13;5071883;28;20200;-56
2023/10/04 08:42:52;;;;;;;17.38;10.07;;;;;;;19.36;68.94;65011.16;5071854;28;20295;-54
2023/10/04 08:45:22;;;;;;;18.75;10.80;;;;;;;19.67;65.23;65045.41;5071738;28;20208;-54
2023/10/04 08:47:55;;;;;;;23.58;11.02;;;;;;;20.01;63.12;65082.97;5071702;28;20205;-54
2023/10/04 08:50:54;;;;;;;22.00;11.30;;;;;;;20.30;61.06;65114.44;5071761;28;20708;-55
2023/10/04 08:53:35;;;;;;;23.58;11.82;;;;;;;20.47;61.96;65133.25;5020995;28;20260;-55
2023/10/04 08:56:11;;;;;;;23.83;10.95;;;;;;;20.85;65.06;65177.25;5071657;28;20215;-55
2023/10/04 08:58:40;;;;;;;20.85;11.20;;;;;;;21.07;60.10;65198.47;5071545;28;20285;-55
2023/10/04 09:01:10;;;;;;;18.92;10.77;;;;;;;20.99;58.73;65190.16;5071663;28;20205;-58
2023/10/04 09:03:40;;;;;;;20.73;11.10;;;;;;;20.74;59.15;65162.53;5053531;28;20225;-57
2023/10/04 09:06:10;;;;;;;19.13;10.90;;;;;;;20.62;56.75;65152.38;5053325;28;20231;-56
2023/10/04 09:08:39;;;;;;;18.77;9.98;;;;;;;21.13;56.93;65205.13;5071666;28;20303;-55
2023/10/04 09:11:10;;;;;;;19.73;11.35;;;;;;;21.12;53.96;65204.56;5053275;28;20188;-55
2023/10/04 09:13:48;;;;;;;20.00;10.70;;;;;;;20.99;55.03;65190.16;5053547;28;20245;-54
2023/10/04 09:16:32;;;;;;;23.58;10.20;;;;;;;21.97;54.48;65298.06;5036678;28;20204;-59
2023/10/04 09:19:07;;;;;;;16.52;9.52;;;;;;;22.31;54.28;65335.13;5071136;28;20204;-55
2023/10/04 09:21:38;;;;;;;17.17;9.55;;;;;;;22.60;55.55;65367.25;5053274;28;20204;-55
2023/10/04 09:24:11;;;;;;;19.52;10.38;;;;;;;22.93;52.68;65403.22;5071317;28;20301;-56
2023/10/04 09:26:38;;;;;;;17.65;9.85;;;;;;;23.12;52.58;65424.84;5053014;28;20212;-56
2023/10/04 09:29:05;;;;;;;16.15;9.60;;;;;;;23.37;48.42;65451.44;5071290;28;20238;-56
2023/10/04 09:31:44;;;;;;;15.40;9.65;;;;;;;23.57;49.47;65473.63;5070225;28;20304;-55
2023/10/04 09:34:13;;;;;;;16.27;9.85;;;;;;;23.58;47.25;65475.28;5070892;28;20700;-55
2023/10/04 09:36:40;;;;;;;20.10;10.02;;;;;;;23.46;48.47;65461.97;5070597;28;20232;-56
2023/10/04 09:39:16;;;;;;;18.20;9.80;;;;;;;23.93;47.86;65513.50;5052886;28;20679;-54
2023/10/04 09:41:47;;;;;;;19.23;10.68;;;;;;;24.09;47.87;65531.28;5070931;28;20215;-54
2023/10/04 09:44:23;;;;;;;17.58;9.57;;;;;;;24.38;46.90;65560.84;5070868;28;20261;-54
2023/10/04 09:47:00;;;;;;;15.55;9.70;;;;;;;24.65;45.03;65593.38;5071095;28;20209;-56
2023/10/04 09:49:37;;;;;;;21.40;10.13;;;;;;;24.47;45.31;65568.25;5070713;28;20272;-55
2023/10/04 09:52:12;;;;;;;22.75;10.38;;;;;;;24.65;44.98;65592.81;5070747;28;20219;-55
2023/10/04 09:54:38;;;;;;;21.52;11.50;;;;;;;24.21;45.11;65544.56;5070637;28;20211;-57
2023/10/04 09:57:12;;;;;;;16.60;10.18;;;;;;;23.79;44.91;65498.56;5070528;28;20300;-55
2023/10/04 09:59:38;;;;;;;15.57;9.43;;;;;;;24.30;44.50;65557.13;5070790;28;20189;-55
2023/10/04 10:02:09;;;;;;;23.52;10.85;;;;;;;24.37;43.49;65562.31;5070758;28;20213;-54
2023/10/04 10:04:43;;;;;;;18.15;11.25;;;;;;;24.10;46.18;65529.78;5052662;28;20281;-53
2023/10/04 10:07:17;;;;;;;16.77;9.57;;;;;;;24.43;43.81;65566.41;5070885;28;20239;-54
2023/10/04 10:10:05;;;;;;;15.07;9.18;;;;;;;25.00;42.79;65629.09;5070683;28;20227;-53
2023/10/04 10:12:35;;;;;;;18.50;10.38;;;;;;;24.45;42.60;65568.06;5052577;28;20208;-53
2023/10/04 10:15:07;;;;;;;19.00;9.15;;;;;;;24.60;43.04;65589.84;5070464;28;20204;-54
2023/10/04 10:17:35;;;;;;;17.98;9.13;;;;;;;24.69;42.37;65597.25;5070321;28;20693;-59
2023/10/04 10:20:02;;;;;;;15.52;9.02;;;;;;;24.95;41.72;65624.09;5069989;28;20237;-55
2023/10/04 10:22:27;;;;;;;22.02;9.60;;;;;;;25.02;41.03;65633.31;5069914;28;20209;-55
2023/10/04 10:24:56;;;;;;;18.10;9.60;;;;;;;24.65;41.68;65593.38;5070368;28;20330;-56
2023/10/04 10:27:27;;;;;;;18.35;8.77;;;;;;;25.28;41.22;65662.19;5069941;28;20207;-55
2023/10/04 10:29:53;;;;;;;20.10;10.23;;;;;;;25.14;40.08;65644.63;5070041;28;20243;-56
2023/10/04 10:32:24;;;;;;;17.02;9.10;;;;;;;25.15;40.36;65647.75;5070181;28;20710;-53
2023/10/04 10:35:12;;;;;;;19.17;9.30;;;;;;;25.62;40.04;65697.91;5070157;28;20205;-56
2023/10/04 10:37:38;;;;;;;14.82;8.73;;;;;;;26.33;39.69;65778.25;5070309;28;20285;-54
2023/10/04 10:40:16;;;;;;;18.90;8.65;;;;;;;26.58;40.22;65806.59;5052067;28;20246;-54
2023/10/04 10:43:07;;;;;;;18.77;10.18;;;;;;;27.10;39.29;65861.25;5071481;28;20227;-55
2023/10/04 10:45:33;;;;;;;15.63;8.93;;;;;;;26.97;36.84;65848.81;5073390;28;20201;-53
2023/10/04 10:48:00;;;;;;;16.38;8.68;;;;;;;26.79;38.08;65828.81;5055400;28;20232;-54
2023/10/04 10:50:33;;;;;;;17.20;8.60;;;;;;;26.54;35.70;65802.13;5073784;28;20216;-55
2023/10/04 10:53:06;;;;;;;14.43;8.68;;;;;;;26.38;35.31;65784.34;5073250;28;20212;-55
2023/10/04 10:55:35;;;;;;;11.13;7.68;;;;;;;26.10;34.67;65753.25;5073853;28;20209;-52
2023/10/04 10:58:01;;;;;;;12.25;7.55;;;;;;;26.03;35.76;65744.91;5073225;28;20217;-56
2023/10/04 11:00:33;;;;;;;14.38;7.57;;;;;;;26.17;35.85;65760.47;5073151;28;20192;-54
2023/10/04 11:02:59;;;;;;;13.38;7.38;;;;;;;26.14;34.70;65754.56;5073045;28;20217;-54
2023/10/04 11:05:26;;;;;;;12.63;6.40;;;;;;;25.98;33.72;65739.38;5073282;28;20200;-56
2023/10/04 11:07:54;;;;;;;10.50;6.20;;;;;;;25.90;33.58;65725.31;5055138;28;20224;-60
2023/10/04 11:10:23;;;;;;;10.75;5.80;;;;;;;26.15;32.92;65758.81;5055137;28;20263;-56
2023/10/04 11:12:58;;;;;;;11.38;6.50;;;;;;;26.81;31.59;65828.47;5055557;28;20213;-55
2023/10/04 11:15:26;;;;;;;15.02;7.70;;;;;;;26.38;32.46;65784.34;5073180;28;20222;-56
2023/10/04 11:17:53;;;;;;;11.73;6.40;;;;;;;27.13;33.00;65864.59;5055132;28;20216;-55
2023/10/04 11:20:20;;;;;;;20.88;15.43;;;;;;;26.68;32.58;65811.41;5071822;28;20197;-56
2023/10/04 11:22:49;;;;;;;11.95;6.85;;;;;;;27.44;31.92;65901.09;5054914;28;20231;-54
2023/10/04 11:25:15;;;;;;;11.18;6.30;;;;;;;27.53;32.40;65907.97;5072946;28;20229;-55
2023/10/04 11:27:46;;;;;;;13.45;6.70;;;;;;;27.98;32.23;65958.59;5072801;28;20236;-54
2023/10/04 11:30:14;;;;;;;11.00;6.03;;;;;;;27.51;29.87;65908.91;5073586;28;20207;-54
2023/10/04 11:32:40;;;;;;;12.43;6.80;;;;;;;27.28;30.27;65883.28;5073270;28;20208;-53
2023/10/04 11:35:08;;;;;;;16.63;11.05;;;;;;;27.85;31.85;65944.13;5055187;28;20188;-54
2023/10/04 11:37:43;;;;;;;9.35;6.40;;;;;;;28.02;30.45;65965.06;5073105;28;20304;-57
2023/10/04 11:40:14;;;;;;;12.45;6.68;;;;;;;28.01;29.64;65959.34;5072872;28;20197;-53
2023/10/04 11:42:45;;;;;;;11.05;6.68;;;;;;;27.68;29.70;65927.22;5072733;28;20231;-55